sensor_id;sensor_type;location;lat;lon;timestamp;pressure;altitude;pressure_sealevel;temperature;humidity
69187;BME280;56301;56.864;60.554;2024-03-02T00:01:52;100105.19;;;25.70;23.78
69187;BME280;56301;56.864;60.554;2024-03-02T00:04:15;100108.63;;;25.73;23.78
69187;BME280;56301;56.864;60.554;2024-03-02T00:06:37;100108.63;;;25.73;23.53
69187;BME280;56301;56.864;60.554;2024-03-02T00:09:00;100110.31;;;25.74;23.49
69187;BME280;56301;56.864;60.554;2024-03-02T00:11:22;100107.59;;;25.74;23.78
69187;BME280;56301;56.864;60.554;2024-03-02T00:13:45;100112.03;;;25.75;23.41
69187;BME280;56301;56.864;60.554;2024-03-02T00:16:08;100110.31;;;25.74;23.47
69187;BME280;56301;56.864;60.554;2024-03-02T00:18:31;100100.31;;;25.74;24.01
69187;BME280;56301;56.864;60.554;2024-03-02T00:20:54;100103.03;;;25.74;23.62
69187;BME280;56301;56.864;60.554;2024-03-02T00:23:16;100098.63;;;25.73;23.24
69187;BME280;56301;56.864;60.554;2024-03-02T00:25:43;100104.22;;;25.72;23.64
69187;BME280;56301;56.864;60.554;2024-03-02T00:28:27;100095.06;;;25.73;23.34
69187;BME280;56301;56.864;60.554;2024-03-02T00:33:26;100092.66;;;25.69;23.98
69187;BME280;56301;56.864;60.554;2024-03-02T00:35:49;100094.34;;;25.70;23.25
69187;BME280;56301;56.864;60.554;2024-03-02T00:38:11;100099.78;;;25.70;23.90
69187;BME280;56301;56.864;60.554;2024-03-02T00:40:34;100103.97;;;25.65;23.94
69187;BME280;56301;56.864;60.554;2024-03-02T00:42:57;100109.78;;;25.70;23.28
69187;BME280;56301;56.864;60.554;2024-03-02T00:45:20;100114.34;;;25.69;23.71
69187;BME280;56301;56.864;60.554;2024-03-02T00:47:43;100119.78;;;25.69;22.94
69187;BME280;56301;56.864;60.554;2024-03-02T00:50:05;100117.75;;;25.72;22.91
69187;BME280;56301;56.864;60.554;2024-03-02T00:52:28;100121.47;;;25.70;23.06
69187;BME280;56301;56.864;60.554;2024-03-02T00:54:51;100121.47;;;25.70;23.58
69187;BME280;56301;56.864;60.554;2024-03-02T00:57:14;100117.06;;;25.69;22.28
69187;BME280;56301;56.864;60.554;2024-03-02T00:59:37;100117.06;;;25.69;22.97
69187;BME280;56301;56.864;60.554;2024-03-02T01:02:00;100116.38;;;25.67;22.67
69187;BME280;56301;56.864;60.554;2024-03-02T01:04:22;100115.66;;;25.65;22.42
69187;BME280;56301;56.864;60.554;2024-03-02T01:06:44;100121.09;;;25.65;22.44
69187;BME280;56301;56.864;60.554;2024-03-02T01:09:07;100120.91;;;25.67;22.13
69187;BME280;56301;56.864;60.554;2024-03-02T01:11:29;100113.13;;;25.64;22.75
69187;BME280;56301;56.864;60.554;2024-03-02T01:13:52;100116.69;;;25.64;22.87
69187;BME280;56301;56.864;60.554;2024-03-02T01:16:15;100122.25;;;25.63;22.35
69187;BME280;56301;56.864;60.554;2024-03-02T01:18:37;100120.72;;;25.60;23.60
69187;BME280;56301;56.864;60.554;2024-03-02T01:21:00;100131.72;;;25.59;22.23
69187;BME280;56301;56.864;60.554;2024-03-02T01:23:22;100123.56;;;25.59;22.10
69187;BME280;56301;56.864;60.554;2024-03-02T01:25:46;100120.03;;;25.58;22.09
69187;BME280;56301;56.864;60.554;2024-03-02T01:28:08;100117.00;;;25.61;22.82
69187;BME280;56301;56.864;60.554;2024-03-02T01:30:31;100120.38;;;25.63;22.61
69187;BME280;56301;56.864;60.554;2024-03-02T01:32:53;100117.84;;;25.62;22.42
69187;BME280;56301;56.864;60.554;2024-03-02T01:35:16;100112.41;;;25.62;21.95
69187;BME280;56301;56.864;60.554;2024-03-02T01:37:38;100113.59;;;25.59;22.01
69187;BME280;56301;56.864;60.554;2024-03-02T01:40:01;100117.00;;;25.61;21.67
69187;BME280;56301;56.864;60.554;2024-03-02T01:42:24;100112.72;;;25.59;21.87
69187;BME280;56301;56.864;60.554;2024-03-02T01:44:46;100112.91;;;25.57;21.96
69187;BME280;56301;56.864;60.554;2024-03-02T01:47:08;100118.31;;;25.57;22.59
69187;BME280;56301;56.864;60.554;2024-03-02T01:49:31;100116.59;;;25.56;22.83
69187;BME280;56301;56.864;60.554;2024-03-02T01:51:53;100115.63;;;25.57;22.14
69187;BME280;56301;56.864;60.554;2024-03-02T01:54:16;100113.88;;;25.56;21.92
69187;BME280;56301;56.864;60.554;2024-03-02T01:56:38;100117.00;;;25.61;21.72
69187;BME280;56301;56.864;60.554;2024-03-02T01:59:01;100116.28;;;25.59;21.91
69187;BME280;56301;56.864;60.554;2024-03-02T02:01:24;100105.38;;;25.51;22.93
69187;BME280;56301;56.864;60.554;2024-03-02T02:03:46;100113.59;;;25.59;21.92
69187;BME280;56301;56.864;60.554;2024-03-02T02:06:08;100121.34;;;25.54;22.30
69187;BME280;56301;56.864;60.554;2024-03-02T02:08:31;100116.94;;;25.53;21.52
69187;BME280;56301;56.864;60.554;2024-03-02T02:10:54;100120.31;;;25.55;22.01
69187;BME280;56301;56.864;60.554;2024-03-02T02:13:16;100125.06;;;25.53;22.17
69187;BME280;56301;56.864;60.554;2024-03-02T02:15:39;100126.75;;;25.54;22.29
69187;BME280;56301;56.864;60.554;2024-03-02T02:18:01;100123.34;;;25.52;22.32
69187;BME280;56301;56.864;60.554;2024-03-02T02:20:24;100127.44;;;25.56;21.86
69187;BME280;56301;56.864;60.554;2024-03-02T02:22:59;100121.34;;;25.54;21.72
69187;BME280;56301;56.864;60.554;2024-03-02T02:25:21;100127.06;;;25.51;22.71
69187;BME280;56301;56.864;60.554;2024-03-02T02:27:44;100130.78;;;25.50;22.08
69187;BME280;56301;56.864;60.554;2024-03-02T02:30:07;100133.28;;;25.43;23.08
69187;BME280;56301;56.864;60.554;2024-03-02T02:32:29;100126.84;;;25.44;22.67
69187;BME280;56301;56.864;60.554;2024-03-02T02:34:52;100123.69;;;25.49;21.80
69187;BME280;56301;56.864;60.554;2024-03-02T02:37:15;100126.41;;;25.49;22.37
69187;BME280;56301;56.864;60.554;2024-03-02T02:39:37;100124.84;;;25.47;22.28
69187;BME280;56301;56.864;60.554;2024-03-02T02:42:00;100127.00;;;25.43;21.78
69187;BME280;56301;56.864;60.554;2024-03-02T02:44:22;100124.28;;;25.43;22.83
69187;BME280;56301;56.864;60.554;2024-03-02T02:46:45;100127.13;;;25.41;22.17
69187;BME280;56301;56.864;60.554;2024-03-02T02:49:07;100127.47;;;25.38;23.38
69187;BME280;56301;56.864;60.554;2024-03-02T02:51:30;100125.63;;;25.39;23.26
69187;BME280;56301;56.864;60.554;2024-03-02T02:53:55;100137.13;;;25.41;21.57
69187;BME280;56301;56.864;60.554;2024-03-02T02:56:17;100136.44;;;25.39;22.21
69187;BME280;56301;56.864;60.554;2024-03-02T02:58:40;100128.16;;;25.40;22.87
69187;BME280;56301;56.864;60.554;2024-03-02T03:01:02;100124.59;;;25.40;22.58
69187;BME280;56301;56.864;60.554;2024-03-02T03:03:25;100126.75;;;25.36;22.31
69187;BME280;56301;56.864;60.554;2024-03-02T03:05:48;100128.69;;;25.44;22.13
69187;BME280;56301;56.864;60.554;2024-03-02T03:08:10;100138.84;;;25.42;21.55
69187;BME280;56301;56.864;60.554;2024-03-02T03:10:33;100129.16;;;25.39;23.54
69187;BME280;56301;56.864;60.554;2024-03-02T03:12:56;100132.34;;;25.35;23.26
69187;BME280;56301;56.864;60.554;2024-03-02T03:15:18;100135.19;;;25.33;23.20
69187;BME280;56301;56.864;60.554;2024-03-02T03:17:41;100132.34;;;25.35;23.29
69187;BME280;56301;56.864;60.554;2024-03-02T03:20:03;100141.69;;;25.40;23.04
69187;BME280;56301;56.864;60.554;2024-03-02T03:22:26;100137.44;;;25.38;22.11
69187;BME280;56301;56.864;60.554;2024-03-02T03:24:49;100134.53;;;25.49;21.69
69187;BME280;56301;56.864;60.554;2024-03-02T03:27:11;100130.50;;;25.53;21.92
69187;BME280;56301;56.864;60.554;2024-03-02T03:29:35;100124.06;;;25.54;21.92
69187;BME280;56301;56.864;60.554;2024-03-02T03:31:58;100126.22;;;25.51;22.21
69187;BME280;56301;56.864;60.554;2024-03-02T03:34:20;100126.75;;;25.54;22.26
69187;BME280;56301;56.864;60.554;2024-03-02T03:36:43;100138.63;;;25.53;22.17
69187;BME280;56301;56.864;60.554;2024-03-02T03:39:05;100127.06;;;25.51;23.10
69187;BME280;56301;56.864;60.554;2024-03-02T03:41:28;100121.94;;;25.48;21.65
69187;BME280;56301;56.864;60.554;2024-03-02T03:43:50;100125.22;;;25.52;21.63
69187;BME280;56301;56.864;60.554;2024-03-02T03:46:12;100130.69;;;25.60;22.04
69187;BME280;56301;56.864;60.554;2024-03-02T03:48:35;100124.97;;;25.63;21.23
69187;BME280;56301;56.864;60.554;2024-03-02T03:50:57;100133.94;;;25.63;21.50
69187;BME280;56301;56.864;60.554;2024-03-02T03:53:20;100127.53;;;25.64;21.19
69187;BME280;56301;56.864;60.554;2024-03-02T03:55:43;100125.81;;;25.63;21.38
69187;BME280;56301;56.864;60.554;2024-03-02T03:58:05;100127.13;;;25.59;21.54
69187;BME280;56301;56.864;60.554;2024-03-02T04:00:27;100121.34;;;25.54;22.26
69187;BME280;56301;56.864;60.554;2024-03-02T04:02:50;100135.44;;;25.58;21.86
69187;BME280;56301;56.864;60.554;2024-03-02T04:05:12;100127.84;;;25.61;21.55
69187;BME280;56301;56.864;60.554;2024-03-02T04:07:35;100131.63;;;25.68;22.21
69187;BME280;56301;56.864;60.554;2024-03-02T04:09:58;100135.66;;;25.64;23.43
69187;BME280;56301;56.864;60.554;2024-03-02T04:12:20;100127.38;;;25.48;22.18
69187;BME280;56301;56.864;60.554;2024-03-02T04:14:43;100126.00;;;25.44;22.24
69187;BME280;56301;56.864;60.554;2024-03-02T04:17:05;100121.19;;;25.38;23.68
69187;BME280;56301;56.864;60.554;2024-03-02T04:19:28;100115.44;;;25.41;23.01
69187;BME280;56301;56.864;60.554;2024-03-02T04:21:50;100121.19;;;25.38;22.64
69187;BME280;56301;56.864;60.554;2024-03-02T04:24:13;100121.19;;;25.38;22.57
69187;BME280;56301;56.864;60.554;2024-03-02T04:26:35;100122.44;;;25.43;23.18
69187;BME280;56301;56.864;60.554;2024-03-02T04:28:58;100128.69;;;25.44;22.67
69187;BME280;56301;56.864;60.554;2024-03-02T04:31:20;100116.31;;;25.41;22.63
69187;BME280;56301;56.864;60.554;2024-03-02T04:33:43;100120.56;;;25.44;22.24
69187;BME280;56301;56.864;60.554;2024-03-02T04:36:05;100123.69;;;25.49;22.14
69187;BME280;56301;56.864;60.554;2024-03-02T04:38:28;100121.09;;;25.48;23.08
69187;BME280;56301;56.864;60.554;2024-03-02T04:40:50;100123.69;;;25.49;22.85
69187;BME280;56301;56.864;60.554;2024-03-02T04:43:13;100124.44;;;25.41;22.99
69187;BME280;56301;56.864;60.554;2024-03-02T04:45:37;100120.09;;;25.31;23.46
69187;BME280;56301;56.864;60.554;2024-03-02T04:48:00;100122.06;;;25.38;23.41
69187;BME280;56301;56.864;60.554;2024-03-02T04:50:22;100117.50;;;25.39;23.10
69187;BME280;56301;56.864;60.554;2024-03-02T04:52:45;100122.91;;;25.39;23.13
69187;BME280;56301;56.864;60.554;2024-03-02T04:55:07;100121.88;;;25.40;22.48
69187;BME280;56301;56.864;60.554;2024-03-02T04:57:30;100056.84;;;25.40;22.69
69187;BME280;56301;56.864;60.554;2024-03-02T04:59:52;100067.34;;;25.35;22.31
69187;BME280;56301;56.864;60.554;2024-03-02T05:02:15;100117.38;;;25.31;23.40
69187;BME280;56301;56.864;60.554;2024-03-02T05:04:37;100138.75;;;25.34;22.64
69187;BME280;56301;56.864;60.554;2024-03-02T05:07:00;100138.38;;;25.29;22.79
69187;BME280;56301;56.864;60.554;2024-03-02T05:09:22;100128.38;;;25.29;23.27
69187;BME280;56301;56.864;60.554;2024-03-02T05:11:45;100125.13;;;25.26;22.67
69187;BME280;56301;56.864;60.554;2024-03-02T05:14:07;100125.84;;;25.28;23.26
69187;BME280;56301;56.864;60.554;2024-03-02T05:16:33;100140.06;;;25.30;22.85
69187;BME280;56301;56.864;60.554;2024-03-02T05:18:56;100133.81;;;25.29;23.04
69187;BME280;56301;56.864;60.554;2024-03-02T05:21:18;100142.09;;;25.28;23.56
69187;BME280;56301;56.864;60.554;2024-03-02T05:23:41;100134.66;;;25.30;23.38
69187;BME280;56301;56.864;60.554;2024-03-02T05:26:03;100134.97;;;25.27;23.08
69187;BME280;56301;56.864;60.554;2024-03-02T05:28:26;100133.56;;;25.23;23.68
69187;BME280;56301;56.864;60.554;2024-03-02T05:30:48;100132.34;;;25.17;24.31
69187;BME280;56301;56.864;60.554;2024-03-02T05:33:11;100127.91;;;25.16;22.49
69187;BME280;56301;56.864;60.554;2024-03-02T05:35:33;100129.66;;;25.07;23.84
69187;BME280;56301;56.864;60.554;2024-03-02T05:37:55;100130.81;;;25.05;22.76
69187;BME280;56301;56.864;60.554;2024-03-02T05:40:18;100129.97;;;25.04;23.24
69187;BME280;56301;56.864;60.554;2024-03-02T05:42:40;100131.09;;;25.02;23.96
69187;BME280;56301;56.864;60.554;2024-03-02T05:45:03;100133.69;;;25.03;22.50
69187;BME280;56301;56.864;60.554;2024-03-02T05:47:25;100139.09;;;25.03;22.93
69187;BME280;56301;56.864;60.554;2024-03-02T05:49:48;100140.25;;;25.01;23.18
69187;BME280;56301;56.864;60.554;2024-03-02T05:52:10;100140.63;;;24.88;22.98
69187;BME280;56301;56.864;60.554;2024-03-02T05:54:33;100121.03;;;24.94;21.97
69187;BME280;56301;56.864;60.554;2024-03-02T05:56:55;100128.56;;;25.00;22.80
69187;BME280;56301;56.864;60.554;2024-03-02T05:59:18;100120.53;;;25.08;22.63
69187;BME280;56301;56.864;60.554;2024-03-02T06:01:41;100119.66;;;25.17;22.36
69187;BME280;56301;56.864;60.554;2024-03-02T06:04:04;100130.56;;;25.26;22.63
69187;BME280;56301;56.864;60.554;2024-03-02T06:06:26;100119.50;;;25.37;23.83
69187;BME280;56301;56.864;60.554;2024-03-02T06:08:49;100118.38;;;25.65;23.04
69187;BME280;56301;56.864;60.554;2024-03-02T06:11:11;100117.63;;;26.25;22.52
69187;BME280;56301;56.864;60.554;2024-03-02T06:13:34;100122.16;;;26.77;21.34
69187;BME280;56301;56.864;60.554;2024-03-02T06:15:56;100121.56;;;27.07;22.46
69187;BME280;56301;56.864;60.554;2024-03-02T06:18:18;100130.13;;;27.29;22.49
69187;BME280;56301;56.864;60.554;2024-03-02T06:20:41;100121.56;;;27.07;25.04
69187;BME280;56301;56.864;60.554;2024-03-02T06:23:04;100126.88;;;26.75;23.95
69187;BME280;56301;56.864;60.554;2024-03-02T06:25:26;100124.28;;;26.57;24.25
69187;BME280;56301;56.864;60.554;2024-03-02T06:27:48;100138.34;;;26.52;24.42
69187;BME280;56301;56.864;60.554;2024-03-02T06:30:11;100125.44;;;26.54;24.61
69187;BME280;56301;56.864;60.554;2024-03-02T06:32:34;100132.66;;;26.72;23.36
69187;BME280;56301;56.864;60.554;2024-03-02T06:34:56;100136.03;;;26.66;23.31
69187;BME280;56301;56.864;60.554;2024-03-02T06:37:19;100127.53;;;26.69;23.72
69187;BME280;56301;56.864;60.554;2024-03-02T06:39:41;100120.44;;;26.76;22.61
69187;BME280;56301;56.864;60.554;2024-03-02T06:42:04;100109.25;;;26.79;23.36
69187;BME280;56301;56.864;60.554;2024-03-02T06:44:26;100104.84;;;26.78;22.95
69187;BME280;56301;56.864;60.554;2024-03-02T06:46:48;100100.75;;;26.66;22.10
69187;BME280;56301;56.864;60.554;2024-03-02T06:49:11;100094.28;;;26.67;22.32
69187;BME280;56301;56.864;60.554;2024-03-02T06:51:33;100090.13;;;26.46;20.39
69187;BME280;56301;56.864;60.554;2024-03-02T06:53:56;100101.00;;;26.20;19.77
69187;BME280;56301;56.864;60.554;2024-03-02T06:56:18;100097.78;;;26.25;20.81
69187;BME280;56301;56.864;60.554;2024-03-02T06:58:41;100094.22;;;26.24;19.71
69187;BME280;56301;56.864;60.554;2024-03-02T07:01:03;100098.13;;;26.48;19.29
69187;BME280;56301;56.864;60.554;2024-03-02T07:03:26;100096.97;;;26.58;19.23
69187;BME280;56301;56.864;60.554;2024-03-02T07:05:48;100087.84;;;26.68;18.67
69187;BME280;56301;56.864;60.554;2024-03-02T07:08:11;100086.28;;;26.65;18.98
69187;BME280;56301;56.864;60.554;2024-03-02T07:10:33;100065.56;;;26.48;18.71
69187;BME280;56301;56.864;60.554;2024-03-02T07:12:55;100085.44;;;26.64;18.08
69187;BME280;56301;56.864;60.554;2024-03-02T07:15:18;100079.75;;;26.84;17.95
69187;BME280;56301;56.864;60.554;2024-03-02T07:17:41;100076.00;;;26.77;18.24
69187;BME280;56301;56.864;60.554;2024-03-02T07:20:04;100087.69;;;26.69;17.37
69187;BME280;56301;56.864;60.554;2024-03-02T07:22:26;100082.59;;;26.66;17.94
69187;BME280;56301;56.864;60.554;2024-03-02T07:24:49;100077.50;;;26.79;18.06
69187;BME280;56301;56.864;60.554;2024-03-02T07:27:12;100078.34;;;26.72;17.36
69187;BME280;56301;56.864;60.554;2024-03-02T07:29:35;100074.34;;;26.92;17.37
69187;BME280;56301;56.864;60.554;2024-03-02T07:31:58;100071.28;;;26.95;17.88
69187;BME280;56301;56.864;60.554;2024-03-02T07:34:20;100069.94;;;26.99;17.27
69187;BME280;56301;56.864;60.554;2024-03-02T07:36:43;100057.75;;;27.11;17.27
69187;BME280;56301;56.864;60.554;2024-03-02T07:39:05;100059.56;;;26.95;17.95
69187;BME280;56301;56.864;60.554;2024-03-02T07:41:28;100055.00;;;26.95;17.19
69187;BME280;56301;56.864;60.554;2024-03-02T07:43:50;100047.25;;;26.58;18.42
69187;BME280;56301;56.864;60.554;2024-03-02T07:46:13;100055.22;;;26.51;18.04
69187;BME280;56301;56.864;60.554;2024-03-02T07:48:35;100043.69;;;26.57;17.79
69187;BME280;56301;56.864;60.554;2024-03-02T07:50:58;100041.34;;;26.62;17.21
69187;BME280;56301;56.864;60.554;2024-03-02T07:53:20;100025.69;;;26.56;18.11
69187;BME280;56301;56.864;60.554;2024-03-02T07:55:43;100027.44;;;26.66;16.86
69187;BME280;56301;56.864;60.554;2024-03-02T07:58:06;100020.84;;;26.76;16.78
69187;BME280;56301;56.864;60.554;2024-03-02T08:00:28;100016.75;;;26.72;17.71
69187;BME280;56301;56.864;60.554;2024-03-02T08:02:51;100016.59;;;26.74;16.20
69187;BME280;56301;56.864;60.554;2024-03-02T08:05:14;100016.25;;;26.77;16.55
69187;BME280;56301;56.864;60.554;2024-03-02T08:07:36;100007.78;;;26.96;16.08
69187;BME280;56301;56.864;60.554;2024-03-02T08:09:59;100003.19;;;27.05;17.01
69187;BME280;56301;56.864;60.554;2024-03-02T08:12:21;100006.25;;;26.94;17.08
69187;BME280;56301;56.864;60.554;2024-03-02T08:14:44;100003.41;;;27.11;16.74
69187;BME280;56301;56.864;60.554;2024-03-02T08:17:06;99990.19;;;27.17;17.73
69187;BME280;56301;56.864;60.554;2024-03-02T08:19:29;100008.84;;;27.20;16.78
69187;BME280;56301;56.864;60.554;2024-03-02T08:21:51;100003.59;;;27.34;16.31
69187;BME280;56301;56.864;60.554;2024-03-02T08:24:14;100010.38;;;27.30;16.99
69187;BME280;56301;56.864;60.554;2024-03-02T08:26:36;99998.50;;;27.31;16.67
69187;BME280;56301;56.864;60.554;2024-03-02T08:28:59;99992.22;;;27.31;17.52
69187;BME280;56301;56.864;60.554;2024-03-02T08:31:21;99992.19;;;27.47;16.53
69187;BME280;56301;56.864;60.554;2024-03-02T08:33:44;99998.59;;;27.63;16.94
69187;BME280;56301;56.864;60.554;2024-03-02T08:36:06;99988.25;;;27.58;18.12
69187;BME280;56301;56.864;60.554;2024-03-02T08:38:29;99991.81;;;27.67;17.33
69187;BME280;56301;56.864;60.554;2024-03-02T08:40:52;99999.81;;;27.68;17.38
69187;BME280;56301;56.864;60.554;2024-03-02T08:43:15;99989.44;;;27.72;17.39
69187;BME280;56301;56.864;60.554;2024-03-02T08:45:37;99996.25;;;27.76;17.78
69187;BME280;56301;56.864;60.554;2024-03-02T08:47:59;99996.06;;;27.77;17.76
69187;BME280;56301;56.864;60.554;2024-03-02T08:50:22;99990.28;;;27.80;17.91
69187;BME280;56301;56.864;60.554;2024-03-02T08:52:44;99997.75;;;27.87;18.71
69187;BME280;56301;56.864;60.554;2024-03-02T08:55:07;99991.50;;;27.78;18.21
69187;BME280;56301;56.864;60.554;2024-03-02T08:57:30;99989.25;;;27.73;18.87
69187;BME280;56301;56.864;60.554;2024-03-02T08:59:52;99985.03;;;27.79;18.80
69187;BME280;56301;56.864;60.554;2024-03-02T09:02:15;99975.63;;;27.73;18.59
69187;BME280;56301;56.864;60.554;2024-03-02T09:04:38;99976.88;;;27.79;18.95
69187;BME280;56301;56.864;60.554;2024-03-02T09:07:00;99976.66;;;27.72;19.42
69187;BME280;56301;56.864;60.554;2024-03-02T09:09:22;99977.50;;;27.73;19.04
69187;BME280;56301;56.864;60.554;2024-03-02T09:11:45;99968.69;;;27.79;19.52
69187;BME280;56301;56.864;60.554;2024-03-02T09:14:08;99968.69;;;27.79;19.39
69187;BME280;56301;56.864;60.554;2024-03-02T09:16:31;99956.13;;;27.78;19.76
69187;BME280;56301;56.864;60.554;2024-03-02T09:18:53;99961.19;;;27.81;19.90
69187;BME280;56301;56.864;60.554;2024-03-02T09:21:16;99950.31;;;27.81;19.33
69187;BME280;56301;56.864;60.554;2024-03-02T09:23:38;99949.28;;;27.74;19.37
69187;BME280;56301;56.864;60.554;2024-03-02T09:26:01;99940.81;;;27.77;18.97
69187;BME280;56301;56.864;60.554;2024-03-02T09:28:23;99942.69;;;27.76;18.71
69187;BME280;56301;56.864;60.554;2024-03-02T09:30:45;99938.78;;;27.71;19.15
69187;BME280;56301;56.864;60.554;2024-03-02T09:33:08;99929.75;;;27.70;19.05
69187;BME280;56301;56.864;60.554;2024-03-02T09:35:30;99932.13;;;27.81;19.06
69187;BME280;56301;56.864;60.554;2024-03-02T09:37:53;99926.03;;;27.79;19.20
69187;BME280;56301;56.864;60.554;2024-03-02T09:40:15;99927.06;;;27.78;19.41
69187;BME280;56301;56.864;60.554;2024-03-02T09:42:38;99925.19;;;27.79;18.68
69187;BME280;56301;56.864;60.554;2024-03-02T09:45:00;99923.66;;;27.76;18.63
69187;BME280;56301;56.864;60.554;2024-03-02T09:47:24;99920.94;;;27.76;18.58
69187;BME280;56301;56.864;60.554;2024-03-02T09:49:46;99923.97;;;27.73;18.91
69187;BME280;56301;56.864;60.554;2024-03-02T09:52:09;99924.69;;;27.75;19.47
69187;BME280;56301;56.864;60.554;2024-03-02T09:54:32;99923.97;;;27.73;19.48
69187;BME280;56301;56.864;60.554;2024-03-02T09:56:54;99912.97;;;27.75;19.51
69187;BME280;56301;56.864;60.554;2024-03-02T09:59:17;99910.06;;;27.76;19.14
69187;BME280;56301;56.864;60.554;2024-03-02T10:01:39;99910.56;;;27.72;19.95
69187;BME280;56301;56.864;60.554;2024-03-02T10:04:02;99908.19;;;27.69;19.48
69187;BME280;56301;56.864;60.554;2024-03-02T10:06:25;99901.06;;;27.68;19.24
69187;BME280;56301;56.864;60.554;2024-03-02T10:08:48;99899.72;;;27.64;19.49
69187;BME280;56301;56.864;60.554;2024-03-02T10:11:10;99895.13;;;27.56;19.42
69187;BME280;56301;56.864;60.554;2024-03-02T10:13:33;99890.06;;;27.53;20.83
69187;BME280;56301;56.864;60.554;2024-03-02T10:15:55;99890.06;;;27.53;20.29
69187;BME280;56301;56.864;60.554;2024-03-02T10:18:18;99886.84;;;27.49;19.62
69187;BME280;56301;56.864;60.554;2024-03-02T10:20:48;99881.19;;;27.59;20.73
69187;BME280;56301;56.864;60.554;2024-03-02T10:23:11;99890.00;;;27.69;19.97
69187;BME280;56301;56.864;60.554;2024-03-02T10:25:34;99879.31;;;27.68;20.12
69187;BME280;56301;56.864;60.554;2024-03-02T10:27:57;99886.97;;;27.64;21.38
69187;BME280;56301;56.864;60.554;2024-03-02T10:30:20;99885.44;;;27.62;20.75
69187;BME280;56301;56.864;60.554;2024-03-02T10:32:42;99894.97;;;27.57;20.94
69187;BME280;56301;56.864;60.554;2024-03-02T10:35:05;99886.13;;;27.55;21.37
69187;BME280;56301;56.864;60.554;2024-03-02T10:37:28;99882.75;;;27.53;21.78
69187;BME280;56301;56.864;60.554;2024-03-02T10:39:51;99880.53;;;27.49;21.98
69187;BME280;56301;56.864;60.554;2024-03-02T10:42:14;99880.06;;;27.45;21.47
69187;BME280;56301;56.864;60.554;2024-03-02T10:44:37;99875.84;;;27.43;21.73
69187;BME280;56301;56.864;60.554;2024-03-02T10:47:01;99873.16;;;27.34;21.29
69187;BME280;56301;56.864;60.554;2024-03-02T10:49:23;99873.31;;;27.25;21.47
69187;BME280;56301;56.864;60.554;2024-03-02T10:51:46;99863.47;;;27.16;21.78
69187;BME280;56301;56.864;60.554;2024-03-02T10:54:09;99865.16;;;27.08;21.46
69187;BME280;56301;56.864;60.554;2024-03-02T10:59:05;99863.81;;;27.04;21.91
69187;BME280;56301;56.864;60.554;2024-03-02T11:01:29;99859.25;;;26.97;23.76
69187;BME280;56301;56.864;60.554;2024-03-02T11:03:51;99858.75;;;26.93;22.27
69187;BME280;56301;56.864;60.554;2024-03-02T11:06:14;99845.84;;;26.95;22.60
69187;BME280;56301;56.864;60.554;2024-03-02T11:08:37;99844.69;;;26.81;22.24
69187;BME280;56301;56.864;60.554;2024-03-02T11:11:07;99848.75;;;26.77;22.97
69187;BME280;56301;56.864;60.554;2024-03-02T11:13:33;99850.44;;;26.78;22.65
69187;BME280;56301;56.864;60.554;2024-03-02T11:16:02;99836.72;;;26.80;22.93
69187;BME280;56301;56.864;60.554;2024-03-02T11:18:26;99835.19;;;26.69;23.23
69187;BME280;56301;56.864;60.554;2024-03-02T11:20:49;99826.53;;;26.74;23.36
69187;BME280;56301;56.864;60.554;2024-03-02T11:23:11;99819.06;;;26.59;23.88
69187;BME280;56301;56.864;60.554;2024-03-02T11:25:34;99817.38;;;26.67;23.95
69187;BME280;56301;56.864;60.554;2024-03-02T11:27:59;99819.94;;;26.52;24.22
69187;BME280;56301;56.864;60.554;2024-03-02T11:32:56;99814.31;;;26.53;23.79
69187;BME280;56301;56.864;60.554;2024-03-02T11:35:18;99815.00;;;26.47;23.90
69187;BME280;56301;56.864;60.554;2024-03-02T11:37:40;99802.59;;;26.45;23.29
69187;BME280;56301;56.864;60.554;2024-03-02T11:40:03;99810.03;;;26.42;24.01
69187;BME280;56301;56.864;60.554;2024-03-02T11:42:26;99795.63;;;26.42;23.38
69187;BME280;56301;56.864;60.554;2024-03-02T11:44:48;99796.28;;;26.36;24.13
69187;BME280;56301;56.864;60.554;2024-03-02T11:47:11;99787.84;;;26.31;23.32
69187;BME280;56301;56.864;60.554;2024-03-02T11:49:50;99785.63;;;26.26;23.96
69187;BME280;56301;56.864;60.554;2024-03-02T11:52:13;99796.81;;;26.23;23.66
69187;BME280;56301;56.864;60.554;2024-03-02T11:54:40;99788.69;;;26.15;23.79
69187;BME280;56301;56.864;60.554;2024-03-02T11:57:02;99790.88;;;26.11;23.56
69187;BME280;56301;56.864;60.554;2024-03-02T11:59:25;99789.16;;;26.10;23.30
69187;BME280;56301;56.864;60.554;2024-03-02T12:01:48;99788.50;;;26.08;23.25
69187;BME280;56301;56.864;60.554;2024-03-02T12:04:11;99785.09;;;26.06;23.86
69187;BME280;56301;56.864;60.554;2024-03-02T12:06:35;99796.97;;;26.05;23.47
69187;BME280;56301;56.864;60.554;2024-03-02T12:08:57;99789.16;;;26.02;23.14
69187;BME280;56301;56.864;60.554;2024-03-02T12:11:20;99792.72;;;26.03;23.88
69187;BME280;56301;56.864;60.554;2024-03-02T12:13:51;99790.34;;;26.00;23.91
69187;BME280;56301;56.864;60.554;2024-03-02T12:16:22;99792.19;;;25.99;23.17
69187;BME280;56301;56.864;60.554;2024-03-02T12:18:44;99785.41;;;25.95;22.84
69187;BME280;56301;56.864;60.554;2024-03-02T12:21:07;99782.72;;;25.95;23.54
69187;BME280;56301;56.864;60.554;2024-03-02T12:23:29;99787.47;;;25.93;23.50
69187;BME280;56301;56.864;60.554;2024-03-02T12:25:52;99780.66;;;25.89;23.19
69187;BME280;56301;56.864;60.554;2024-03-02T12:28:14;99779.28;;;25.85;23.59